Time;durP1;ratioP1;P1;durP2;ratioP2;P2;SDS_P1;SDS_P2;PMS_P1;PMS_P2;Temp;Humidity;BMP_temperature;BMP_pressure;BME280_temperature;BME280_humidity;BME280_pressure;Samples;Min_cycle;Max_cycle;Signal;HPM_P1;HPM_P2
2022/05/25 00:01:50;;;;;;;2.25;0.77;;;;;;;;;;5132390;27;20235;-19
2022/05/25 00:04:18;;;;;;;1.33;0.88;;;;;;;;;;5138083;27;21056;-20
2022/05/25 00:06:46;;;;;;;2.17;0.80;;;;;;;;;;5137782;27;20670;-19
2022/05/25 00:09:14;;;;;;;0.80;0.50;;;;;;;;;;5137989;27;20231;-19
2022/05/25 00:11:41;;;;;;;0.88;0.70;;;;;;;;;;5136210;27;20269;-19
2022/05/25 00:14:10;;;;;;;1.58;0.80;;;;;;;;;;5129251;27;20960;-19
2022/05/25 00:16:37;;;;;;;0.75;0.68;;;;;;;;;;5136488;27;20728;-19
2022/05/25 00:21:50;;;;;;;2.20;1.13;;;;;;;;;;5130479;27;20717;-19
2022/05/25 00:24:17;;;;;;;1.67;0.88;;;;;;;;;;5137600;27;20239;-19
2022/05/25 00:26:44;;;;;;;1.67;0.93;;;;;;;;;;5137560;27;20261;-19
2022/05/25 00:29:14;;;;;;;1.23;0.70;;;;;;;;;;5138348;27;20246;-19
2022/05/25 00:31:42;;;;;;;0.85;0.82;;;;;;;;;;5125777;27;20306;-19
2022/05/25 00:34:09;;;;;;;1.27;0.80;;;;;;;;;;5127008;27;20304;-19
2022/05/25 00:36:37;;;;;;;2.97;0.82;;;;;;;;;;5134246;27;20273;-19
2022/05/25 00:39:05;;;;;;;1.80;0.80;;;;;;;;;;5134344;27;20280;-19
2022/05/25 00:41:32;;;;;;;1.50;0.75;;;;;;;;;;5134372;27;20234;-19
2022/05/25 00:44:00;;;;;;;1.05;0.95;;;;;;;;;;5133008;27;20235;-19
2022/05/25 00:46:29;;;;;;;1.23;0.90;;;;;;;;;;5132639;27;20220;-19
2022/05/25 00:48:57;;;;;;;1.08;1.00;;;;;;;;;;5134020;27;20232;-20
2022/05/25 00:51:26;;;;;;;1.90;0.93;;;;;;;;;;5134364;27;20227;-19
2022/05/25 00:53:55;;;;;;;0.90;0.70;;;;;;;;;;5134002;27;20698;-19
2022/05/25 00:56:22;;;;;;;0.88;0.70;;;;;;;;;;5131744;27;20223;-19
2022/05/25 00:58:50;;;;;;;0.85;0.82;;;;;;;;;;5134042;27;20219;-19
2022/05/25 01:01:17;;;;;;;0.90;0.80;;;;;;;;;;5132377;27;20237;-20
2022/05/25 01:03:46;;;;;;;0.60;0.60;;;;;;;;;;5133766;27;20235;-19
2022/05/25 01:06:15;;;;;;;1.33;1.00;;;;;;;;;;5131681;27;20690;-19
2022/05/25 01:08:45;;;;;;;2.47;0.93;;;;;;;;;;5133923;27;20231;-19
2022/05/25 01:11:16;;;;;;;2.33;1.08;;;;;;;;;;5126480;27;20224;-19
2022/05/25 01:13:45;;;;;;;2.17;1.00;;;;;;;;;;5127029;27;20243;-19
2022/05/25 01:16:18;;;;;;;1.88;0.93;;;;;;;;;;5126137;27;20228;-20
2022/05/25 01:18:49;;;;;;;1.60;1.02;;;;;;;;;;5123698;27;20266;-19
2022/05/25 01:21:17;;;;;;;1.20;0.90;;;;;;;;;;5121266;27;20289;-19
2022/05/25 01:23:57;;;;;;;1.02;0.90;;;;;;;;;;5130199;27;20232;-19
2022/05/25 01:26:37;;;;;;;1.10;0.95;;;;;;;;;;5129294;27;20600;-19
2022/05/25 01:29:06;;;;;;;1.88;1.10;;;;;;;;;;5131635;27;20232;-19
2022/05/25 01:31:36;;;;;;;3.65;1.25;;;;;;;;;;5128070;27;20228;-19
2022/05/25 01:34:04;;;;;;;1.10;1.00;;;;;;;;;;5133755;27;20228;-20
2022/05/25 01:36:32;;;;;;;1.48;1.38;;;;;;;;;;5133358;27;20706;-20
2022/05/25 01:39:02;;;;;;;1.13;0.90;;;;;;;;;;5131852;27;20246;-19
2022/05/25 01:41:30;;;;;;;1.10;0.90;;;;;;;;;;5133481;27;20235;-19
2022/05/25 01:43:58;;;;;;;1.52;1.10;;;;;;;;;;5133044;27;20223;-19
2022/05/25 01:46:26;;;;;;;1.63;1.00;;;;;;;;;;5131134;27;21137;-19
2022/05/25 01:48:55;;;;;;;2.38;1.05;;;;;;;;;;5133112;27;20240;-19
2022/05/25 01:51:24;;;;;;;1.52;1.25;;;;;;;;;;5131310;27;20744;-18
2022/05/25 01:53:53;;;;;;;1.80;1.10;;;;;;;;;;5133219;27;20234;-19
2022/05/25 01:56:20;;;;;;;1.60;1.20;;;;;;;;;;5133067;27;20227;-19
2022/05/25 01:58:48;;;;;;;1.15;0.90;;;;;;;;;;5133453;27;20230;-20
2022/05/25 02:01:15;;;;;;;1.63;1.17;;;;;;;;;;5131189;27;20231;-19
2022/05/25 02:06:37;;;;;;;1.30;0.95;;;;;;;;;;5125405;27;20231;-19
2022/05/25 02:09:11;;;;;;;1.25;1.00;;;;;;;;;;5132760;27;20572;-19
2022/05/25 02:11:38;;;;;;;1.70;1.30;;;;;;;;;;5118067;27;20699;-19
2022/05/25 02:14:08;;;;;;;2.15;1.05;;;;;;;;;;5132577;27;20254;-19
2022/05/25 02:16:37;;;;;;;1.05;0.85;;;;;;;;;;5127174;27;20220;-19
2022/05/25 02:19:06;;;;;;;1.63;1.35;;;;;;;;;;5133260;27;20223;-19
2022/05/25 02:21:36;;;;;;;1.27;1.00;;;;;;;;;;5125735;27;20246;-20
2022/05/25 02:24:06;;;;;;;1.30;0.95;;;;;;;;;;5130579;27;20235;-19
2022/05/25 02:26:35;;;;;;;1.13;0.95;;;;;;;;;;5132593;27;20324;-19
2022/05/25 02:29:04;;;;;;;2.78;1.00;;;;;;;;;;5132537;27;21058;-19
2022/05/25 02:31:32;;;;;;;2.38;1.30;;;;;;;;;;5131290;27;20220;-19
2022/05/25 02:34:01;;;;;;;1.40;1.13;;;;;;;;;;5131040;27;20310;-19
2022/05/25 02:36:29;;;;;;;1.98;1.20;;;;;;;;;;5132296;27;20231;-20
2022/05/25 02:38:57;;;;;;;1.15;0.90;;;;;;;;;;5132620;27;20231;-19
2022/05/25 02:41:29;;;;;;;1.30;1.10;;;;;;;;;;5132499;27;20231;-18
2022/05/25 02:43:56;;;;;;;1.83;0.93;;;;;;;;;;5132530;27;20238;-19
2022/05/25 02:46:24;;;;;;;3.78;1.10;;;;;;;;;;5124841;27;20235;-19
2022/05/25 02:48:51;;;;;;;1.95;0.98;;;;;;;;;;5132016;27;20239;-19
2022/05/25 02:51:18;;;;;;;1.38;1.00;;;;;;;;;;5132210;27;20227;-19
2022/05/25 02:53:46;;;;;;;1.17;1.00;;;;;;;;;;5132009;27;20228;-19
2022/05/25 02:56:15;;;;;;;1.00;0.90;;;;;;;;;;5125774;27;20232;-19
2022/05/25 02:58:42;;;;;;;1.42;1.00;;;;;;;;;;5116209;27;20293;-19
2022/05/25 03:01:09;;;;;;;2.13;1.05;;;;;;;;;;5122064;27;20978;-19
2022/05/25 03:03:37;;;;;;;1.42;1.00;;;;;;;;;;5132236;27;20231;-19
2022/05/25 03:06:04;;;;;;;1.35;0.90;;;;;;;;;;5131831;27;20235;-20
2022/05/25 03:08:31;;;;;;;1.15;1.02;;;;;;;;;;5130335;27;20253;-19
2022/05/25 03:10:59;;;;;;;1.55;1.20;;;;;;;;;;5132067;27;20219;-19
2022/05/25 03:13:27;;;;;;;1.25;1.00;;;;;;;;;;5131734;27;21016;-18
2022/05/25 03:15:57;;;;;;;1.27;1.00;;;;;;;;;;5130498;27;20243;-20
2022/05/25 03:18:24;;;;;;;1.20;0.95;;;;;;;;;;5130870;27;20227;-17
2022/05/25 03:20:52;;;;;;;1.55;1.13;;;;;;;;;;5131840;27;20220;-17
2022/05/25 03:23:19;;;;;;;1.30;1.15;;;;;;;;;;5131792;27;20247;-17
2022/05/25 03:25:46;;;;;;;1.88;0.98;;;;;;;;;;5131173;27;20227;-17
2022/05/25 03:28:14;;;;;;;2.13;1.40;;;;;;;;;;5130416;27;20215;-19
2022/05/25 03:30:43;;;;;;;1.20;1.00;;;;;;;;;;5130696;27;20220;-20
2022/05/25 03:33:10;;;;;;;1.92;1.00;;;;;;;;;;5123865;27;20310;-18
2022/05/25 03:35:37;;;;;;;1.95;0.98;;;;;;;;;;5131593;27;20265;-20
2022/05/25 03:38:05;;;;;;;1.55;1.20;;;;;;;;;;5131419;27;20728;-20
2022/05/25 03:40:32;;;;;;;1.33;1.08;;;;;;;;;;5129900;27;20228;-20
2022/05/25 03:43:00;;;;;;;1.83;1.20;;;;;;;;;;5131589;27;21141;-19
2022/05/25 03:45:27;;;;;;;1.90;1.13;;;;;;;;;;5130538;27;20277;-20
2022/05/25 03:47:56;;;;;;;1.58;1.10;;;;;;;;;;5131384;27;20216;-19
2022/05/25 03:50:23;;;;;;;1.00;1.00;;;;;;;;;;5128824;27;20978;-19
2022/05/25 03:52:50;;;;;;;1.60;1.08;;;;;;;;;;5131399;27;20219;-19
2022/05/25 03:55:18;;;;;;;1.70;1.02;;;;;;;;;;5131449;27;21066;-19
2022/05/25 03:57:45;;;;;;;1.30;1.00;;;;;;;;;;5131378;27;20228;-19
2022/05/25 04:00:13;;;;;;;2.58;0.90;;;;;;;;;;5130080;27;20691;-19
2022/05/25 04:02:40;;;;;;;1.50;1.08;;;;;;;;;;5125380;27;20261;-20
2022/05/25 04:05:09;;;;;;;2.55;1.02;;;;;;;;;;5131167;27;20664;-19
2022/05/25 04:07:37;;;;;;;0.98;0.90;;;;;;;;;;5133292;27;20239;-20
2022/05/25 04:10:05;;;;;;;1.25;1.05;;;;;;;;;;5134968;27;20222;-20
2022/05/25 04:12:32;;;;;;;1.33;0.93;;;;;;;;;;5133583;27;20263;-20
2022/05/25 04:15:00;;;;;;;1.77;0.90;;;;;;;;;;5134312;27;20224;-19
2022/05/25 04:17:27;;;;;;;1.10;1.00;;;;;;;;;;5133010;27;20318;-18
2022/05/25 04:19:55;;;;;;;1.48;1.10;;;;;;;;;;5134489;27;20314;-19
2022/05/25 04:22:24;;;;;;;2.00;0.98;;;;;;;;;;5134202;27;20822;-19
2022/05/25 04:24:51;;;;;;;2.70;1.20;;;;;;;;;;5133280;27;20231;-19
2022/05/25 04:27:19;;;;;;;1.00;0.90;;;;;;;;;;5134545;27;20314;-19
2022/05/25 04:29:46;;;;;;;1.92;1.17;;;;;;;;;;5134718;27;20255;-19
2022/05/25 04:32:14;;;;;;;2.17;1.00;;;;;;;;;;5132986;27;20277;-20
2022/05/25 04:34:41;;;;;;;1.13;0.90;;;;;;;;;;5132978;27;20314;-20
2022/05/25 04:39:54;;;;;;;2.47;1.10;;;;;;;;;;5129372;27;20227;-19
2022/05/25 04:42:22;;;;;;;1.45;1.30;;;;;;;;;;5134162;27;20232;-19
2022/05/25 04:44:49;;;;;;;1.63;1.20;;;;;;;;;;5134274;27;20330;-19
2022/05/25 04:47:17;;;;;;;1.98;1.40;;;;;;;;;;5131728;27;20710;-20
2022/05/25 04:49:44;;;;;;;1.95;1.23;;;;;;;;;;5133920;27;20243;-19
2022/05/25 04:52:12;;;;;;;1.90;1.45;;;;;;;;;;5134213;27;20236;-19
2022/05/25 04:54:39;;;;;;;1.83;1.40;;;;;;;;;;5126165;27;20231;-19
2022/05/25 04:57:19;;;;;;;1.83;1.50;;;;;;;;;;5132577;27;20990;-19
2022/05/25 04:59:46;;;;;;;1.77;1.30;;;;;;;;;;5127490;27;20222;-20
2022/05/25 05:02:15;;;;;;;1.90;1.60;;;;;;;;;;5132675;27;20231;-20
2022/05/25 05:04:42;;;;;;;1.90;1.70;;;;;;;;;;5133129;27;20259;-19
2022/05/25 05:07:10;;;;;;;4.30;1.88;;;;;;;;;;5124468;27;20810;-19
2022/05/25 05:09:38;;;;;;;2.97;1.50;;;;;;;;;;5133506;27;20231;-18
2022/05/25 05:12:05;;;;;;;2.03;1.58;;;;;;;;;;5133376;27;20227;-21
2022/05/25 05:14:38;;;;;;;2.60;1.85;;;;;;;;;;5133826;27;20286;-19
2022/05/25 05:17:05;;;;;;;2.63;1.77;;;;;;;;;;5131988;27;20231;-17
2022/05/25 05:19:33;;;;;;;4.18;1.90;;;;;;;;;;5133158;27;20306;-19
2022/05/25 05:22:00;;;;;;;3.42;2.20;;;;;;;;;;5133393;27;20877;-19
2022/05/25 05:24:28;;;;;;;3.15;2.00;;;;;;;;;;5133365;27;20255;-20
2022/05/25 05:26:55;;;;;;;5.30;2.40;;;;;;;;;;5133328;27;20227;-19
2022/05/25 05:29:24;;;;;;;4.68;2.42;;;;;;;;;;5131021;27;20993;-19
2022/05/25 05:31:53;;;;;;;3.85;2.47;;;;;;;;;;5131946;27;20257;-20
2022/05/25 05:34:20;;;;;;;2.20;2.00;;;;;;;;;;5133658;27;20228;-19
2022/05/25 05:36:48;;;;;;;5.10;2.45;;;;;;;;;;5133243;27;20721;-19
2022/05/25 05:39:15;;;;;;;3.42;2.20;;;;;;;;;;5132935;27;20223;-19
2022/05/25 05:41:43;;;;;;;2.95;2.42;;;;;;;;;;5131857;27;20242;-19
2022/05/25 05:44:11;;;;;;;3.78;2.47;;;;;;;;;;5125697;27;20227;-20
2022/05/25 05:46:41;;;;;;;2.85;2.35;;;;;;;;;;5131825;27;20224;-20
2022/05/25 05:49:10;;;;;;;3.38;2.58;;;;;;;;;;5133187;27;20231;-20
2022/05/25 05:51:37;;;;;;;4.18;2.78;;;;;;;;;;5131145;27;20259;-19
2022/05/25 05:54:05;;;;;;;5.03;3.67;;;;;;;;;;5132186;27;20219;-19
2022/05/25 05:56:32;;;;;;;3.92;3.20;;;;;;;;;;5133587;27;20216;-20
2022/05/25 05:59:00;;;;;;;4.65;2.70;;;;;;;;;;5132912;27;20243;-20
2022/05/25 06:01:27;;;;;;;4.72;3.33;;;;;;;;;;5131830;27;20650;-20
2022/05/25 06:03:54;;;;;;;4.82;3.33;;;;;;;;;;5131536;27;20223;-19
2022/05/25 06:06:24;;;;;;;4.18;3.17;;;;;;;;;;5132958;27;20234;-19
2022/05/25 06:08:51;;;;;;;4.22;2.95;;;;;;;;;;5132884;27;21243;-19
2022/05/25 06:11:19;;;;;;;4.00;3.17;;;;;;;;;;5132814;27;20223;-19
2022/05/25 06:13:46;;;;;;;4.65;3.67;;;;;;;;;;5131139;27;20229;-19
2022/05/25 06:21:56;;;;;;;7.53;3.88;;;;;;;;;;5125393;27;20972;-19
2022/05/25 06:24:24;;;;;;;5.25;3.95;;;;;;;;;;5130958;27;20235;-19
2022/05/25 06:26:51;;;;;;;5.38;3.85;;;;;;;;;;5132332;27;20736;-19
2022/05/25 06:29:19;;;;;;;4.88;3.70;;;;;;;;;;5131268;27;20231;-19
2022/05/25 06:31:46;;;;;;;6.07;3.38;;;;;;;;;;5131271;27;20857;-19
2022/05/25 06:34:14;;;;;;;8.52;3.70;;;;;;;;;;5132474;27;20959;-19
2022/05/25 06:36:41;;;;;;;5.88;3.30;;;;;;;;;;5126696;27;20238;-19
2022/05/25 06:39:10;;;;;;;5.80;3.60;;;;;;;;;;5132323;27;20246;-19
2022/05/25 06:41:37;;;;;;;6.38;3.13;;;;;;;;;;5132464;27;21132;-19
2022/05/25 06:44:05;;;;;;;4.80;3.10;;;;;;;;;;5131621;27;20223;-19
2022/05/25 06:46:32;;;;;;;3.95;3.30;;;;;;;;;;5129349;27;20232;-19
2022/05/25 06:48:59;;;;;;;3.75;3.20;;;;;;;;;;5132224;27;20247;-20
2022/05/25 06:51:27;;;;;;;5.28;3.40;;;;;;;;;;5132103;27;20238;-19
2022/05/25 06:53:55;;;;;;;5.80;3.10;;;;;;;;;;5132220;27;20239;-19
2022/05/25 06:56:24;;;;;;;4.38;2.67;;;;;;;;;;5131985;27;20235;-18
2022/05/25 06:58:52;;;;;;;3.95;2.97;;;;;;;;;;5130414;27;20314;-19
2022/05/25 07:01:19;;;;;;;5.70;2.65;;;;;;;;;;5130578;27;20690;-19
2022/05/25 07:03:46;;;;;;;5.63;2.97;;;;;;;;;;5132240;27;20231;-19
2022/05/25 07:06:14;;;;;;;4.95;2.50;;;;;;;;;;5131974;27;20230;-19
2022/05/25 07:08:42;;;;;;;4.53;2.90;;;;;;;;;;5129932;27;20234;-19
2022/05/25 07:11:09;;;;;;;4.10;2.75;;;;;;;;;;5123776;27;20266;-19
2022/05/25 07:13:38;;;;;;;6.47;2.40;;;;;;;;;;5132147;27;20235;-19
2022/05/25 07:16:06;;;;;;;3.75;2.35;;;;;;;;;;5130560;27;20263;-19
2022/05/25 07:18:34;;;;;;;3.97;2.25;;;;;;;;;;5132322;27;20342;-19
2022/05/25 07:21:01;;;;;;;3.47;2.70;;;;;;;;;;5130247;27;20226;-19
2022/05/25 07:23:28;;;;;;;4.85;2.90;;;;;;;;;;5131039;27;20740;-19
2022/05/25 07:25:56;;;;;;;4.88;3.40;;;;;;;;;;5131939;27;20284;-19
2022/05/25 07:28:23;;;;;;;4.32;2.88;;;;;;;;;;5131780;27;20250;-19
2022/05/25 07:30:52;;;;;;;4.97;2.78;;;;;;;;;;5125626;27;20232;-19
2022/05/25 07:33:19;;;;;;;4.22;2.85;;;;;;;;;;5131167;27;20249;-19
2022/05/25 07:35:46;;;;;;;7.38;3.08;;;;;;;;;;5131470;27;20235;-19
2022/05/25 07:38:14;;;;;;;3.40;2.33;;;;;;;;;;5131642;27;20325;-19
2022/05/25 07:40:41;;;;;;;3.17;2.13;;;;;;;;;;5132492;27;20211;-19
2022/05/25 07:43:09;;;;;;;6.35;2.60;;;;;;;;;;5127467;27;20777;-18
2022/05/25 07:45:37;;;;;;;5.28;2.50;;;;;;;;;;5130586;27;20232;-19
2022/05/25 07:48:06;;;;;;;4.15;2.60;;;;;;;;;;5134420;27;20270;-19
2022/05/25 07:50:35;;;;;;;2.67;2.20;;;;;;;;;;5135109;27;20216;-19
2022/05/25 07:53:03;;;;;;;2.58;2.17;;;;;;;;;;5133496;27;20223;-19
2022/05/25 07:55:30;;;;;;;3.95;2.40;;;;;;;;;;5135071;27;20231;-19
2022/05/25 07:57:57;;;;;;;3.58;2.72;;;;;;;;;;5134338;27;20227;-19
2022/05/25 08:00:25;;;;;;;5.43;2.80;;;;;;;;;;5133810;27;20224;-19
2022/05/25 08:05:47;;;;;;;3.90;2.60;;;;;;;;;;5126378;27;20231;-19
2022/05/25 08:08:18;;;;;;;4.47;2.22;;;;;;;;;;5129309;27;20227;-19
2022/05/25 08:10:47;;;;;;;3.75;2.20;;;;;;;;;;5134606;27;20330;-20
2022/05/25 08:13:17;;;;;;;4.63;2.65;;;;;;;;;;5134947;27;21044;-18
2022/05/25 08:15:44;;;;;;;4.18;2.40;;;;;;;;;;5131537;27;20231;-18
2022/05/25 08:18:11;;;;;;;5.00;2.20;;;;;;;;;;5134680;27;20231;-19
2022/05/25 08:20:40;;;;;;;5.03;2.63;;;;;;;;;;5126593;27;20223;-19
2022/05/25 08:23:08;;;;;;;3.55;2.00;;;;;;;;;;5133488;27;20248;-19
2022/05/25 08:25:35;;;;;;;4.32;2.28;;;;;;;;;;5133049;27;20230;-19
2022/05/25 08:28:02;;;;;;;2.92;1.90;;;;;;;;;;5134492;27;20232;-19
2022/05/25 08:30:30;;;;;;;3.53;2.45;;;;;;;;;;5133473;27;20287;-19
2022/05/25 08:32:57;;;;;;;5.53;2.30;;;;;;;;;;5134439;27;20224;-19
2022/05/25 08:35:26;;;;;;;6.50;2.40;;;;;;;;;;5134532;27;20223;-19
2022/05/25 08:37:55;;;;;;;3.35;2.33;;;;;;;;;;5133314;27;20233;-19
2022/05/25 08:40:22;;;;;;;5.03;2.70;;;;;;;;;;5134197;27;20226;-19
2022/05/25 08:42:51;;;;;;;3.45;2.28;;;;;;;;;;5134161;27;20239;-19
2022/05/25 08:45:18;;;;;;;3.60;2.22;;;;;;;;;;5132689;27;20697;-19
2022/05/25 08:47:47;;;;;;;4.03;2.20;;;;;;;;;;5131680;27;20250;-19
2022/05/25 08:50:15;;;;;;;4.10;2.63;;;;;;;;;;5133787;27;20250;-19
2022/05/25 08:52:42;;;;;;;7.07;2.75;;;;;;;;;;5133359;27;20720;-19
2022/05/25 08:55:11;;;;;;;4.35;2.67;;;;;;;;;;5125895;27;20235;-19
2022/05/25 08:57:39;;;;;;;3.22;1.63;;;;;;;;;;5125620;27;20239;-19
2022/05/25 09:00:07;;;;;;;4.38;2.08;;;;;;;;;;5132535;27;20934;-19
2022/05/25 09:02:37;;;;;;;3.22;2.20;;;;;;;;;;5133411;27;20244;-19
2022/05/25 09:05:10;;;;;;;1.88;1.77;;;;;;;;;;5134061;27;20266;-19
2022/05/25 09:07:39;;;;;;;5.43;2.10;;;;;;;;;;5133724;27;20281;-19
2022/05/25 09:10:07;;;;;;;4.50;2.28;;;;;;;;;;5132057;27;20417;-19
2022/05/25 09:12:37;;;;;;;4.53;2.13;;;;;;;;;;5133137;27;20227;-19
2022/05/25 09:15:05;;;;;;;3.88;2.20;;;;;;;;;;5134077;27;20223;-19
2022/05/25 09:17:33;;;;;;;3.63;2.05;;;;;;;;;;5123710;27;20250;-18
2022/05/25 09:20:00;;;;;;;3.22;2.33;;;;;;;;;;5133289;27;20999;-19
2022/05/25 09:22:31;;;;;;;3.83;2.72;;;;;;;;;;5130073;27;20289;-19
2022/05/25 09:24:58;;;;;;;3.30;2.30;;;;;;;;;;5133182;27;20228;-20
2022/05/25 09:27:28;;;;;;;5.32;2.83;;;;;;;;;;5133372;27;20815;-20
2022/05/25 09:29:57;;;;;;;3.17;2.60;;;;;;;;;;5133498;27;20246;-19
2022/05/25 09:32:32;;;;;;;5.45;2.33;;;;;;;;;;5125869;27;20230;-19
2022/05/25 09:35:01;;;;;;;5.20;3.05;;;;;;;;;;5133334;27;20791;-19
2022/05/25 09:37:30;;;;;;;4.50;2.75;;;;;;;;;;5133011;27;20231;-20
2022/05/25 09:39:58;;;;;;;5.45;2.78;;;;;;;;;;5133094;27;20220;-19
2022/05/25 09:42:25;;;;;;;5.40;2.88;;;;;;;;;;5131116;27;20224;-19
2022/05/25 09:44:54;;;;;;;6.93;2.95;;;;;;;;;;5133266;27;20262;-19
2022/05/25 09:47:24;;;;;;;4.38;2.72;;;;;;;;;;5131830;27;20586;-19
2022/05/25 09:49:52;;;;;;;4.45;2.40;;;;;;;;;;5133248;27;20239;-19
2022/05/25 09:52:20;;;;;;;4.70;2.30;;;;;;;;;;5133106;27;20223;-19
2022/05/25 09:54:57;;;;;;;5.90;3.38;;;;;;;;;;5131250;27;20254;-19
2022/05/25 09:57:32;;;;;;;4.60;3.08;;;;;;;;;;5133219;27;20232;-19
2022/05/25 10:00:01;;;;;;;4.13;2.55;;;;;;;;;;5133255;27;20685;-19
2022/05/25 10:02:31;;;;;;;6.07;3.00;;;;;;;;;;5131345;27;20235;-19
2022/05/25 10:05:06;;;;;;;3.63;2.10;;;;;;;;;;5131363;27;20242;-19
2022/05/25 10:07:35;;;;;;;3.25;2.50;;;;;;;;;;5133028;27;20212;-19
2022/05/25 10:10:04;;;;;;;3.78;2.35;;;;;;;;;;5132621;27;20243;-19
2022/05/25 10:12:31;;;;;;;4.35;2.53;;;;;;;;;;5132850;27;20223;-19
2022/05/25 10:15:00;;;;;;;4.07;2.88;;;;;;;;;;5132822;27;20687;-19
2022/05/25 10:17:32;;;;;;;2.78;2.30;;;;;;;;;;5130943;27;20235;-19
2022/05/25 10:20:00;;;;;;;3.55;2.70;;;;;;;;;;5133145;27;20971;-19
2022/05/25 10:22:31;;;;;;;5.30;3.20;;;;;;;;;;5132022;27;20249;-19
2022/05/25 10:24:59;;;;;;;5.65;3.40;;;;;;;;;;5132652;27;20722;-19
2022/05/25 10:27:28;;;;;;;3.92;3.42;;;;;;;;;;5130060;27;20229;-19
2022/05/25 10:38:28;;;;;;;5.72;4.50;;;;;;;;;;5114277;27;20735;-19
2022/05/25 10:40:56;;;;;;;6.53;4.75;;;;;;;;;;5132604;27;20311;-20
2022/05/25 10:43:31;;;;;;;5.32;4.82;;;;;;;;;;5132738;27;20219;-19
2022/05/25 10:46:00;;;;;;;9.05;5.80;;;;;;;;;;5130755;27;20292;-19
2022/05/25 10:48:38;;;;;;;6.70;5.10;;;;;;;;;;5130693;27;20242;-19
2022/05/25 10:51:07;;;;;;;8.85;6.68;;;;;;;;;;5132122;27;20249;-19
2022/05/25 10:53:41;;;;;;;8.85;6.88;;;;;;;;;;5122928;27;20233;-19
2022/05/25 10:56:12;;;;;;;8.00;6.70;;;;;;;;;;5123746;27;20223;-19
2022/05/25 10:58:43;;;;;;;7.18;6.47;;;;;;;;;;5123998;27;20706;-19
2022/05/25 11:01:24;;;;;;;8.85;6.95;;;;;;;;;;5123532;27;20724;-19
2022/05/25 11:04:05;;;;;;;9.30;7.45;;;;;;;;;;5127101;27;20254;-19
2022/05/25 11:06:38;;;;;;;7.13;6.45;;;;;;;;;;5132397;27;20235;-19
2022/05/25 11:09:08;;;;;;;8.65;6.72;;;;;;;;;;5131875;27;20223;-19
2022/05/25 11:11:36;;;;;;;7.82;7.03;;;;;;;;;;5130367;27;20227;-19
2022/05/25 11:14:18;;;;;;;9.38;7.32;;;;;;;;;;5131871;27;20227;-19
2022/05/25 11:16:48;;;;;;;8.27;7.47;;;;;;;;;;5129456;27;20708;-19
2022/05/25 11:19:34;;;;;;;8.00;7.20;;;;;;;;;;5131297;27;20238;-19
2022/05/25 11:22:06;;;;;;;7.63;6.88;;;;;;;;;;5129867;27;20593;-20
2022/05/25 11:24:37;;;;;;;6.93;6.32;;;;;;;;;;5131676;27;20948;-19
2022/05/25 11:27:07;;;;;;;7.47;6.78;;;;;;;;;;5131423;27;20238;-19
2022/05/25 11:29:44;;;;;;;6.90;6.20;;;;;;;;;;5131771;27;20237;-19
2022/05/25 11:32:14;;;;;;;6.97;6.22;;;;;;;;;;5124228;27;20242;-18
2022/05/25 11:34:46;;;;;;;6.75;6.05;;;;;;;;;;5124109;27;20227;-19
2022/05/25 11:37:19;;;;;;;7.43;6.35;;;;;;;;;;5124570;27;20223;-20
2022/05/25 11:39:48;;;;;;;6.85;6.22;;;;;;;;;;5131624;27;20219;-17
2022/05/25 11:42:20;;;;;;;7.10;6.07;;;;;;;;;;5131499;27;20728;-18
2022/05/25 11:44:52;;;;;;;7.88;6.35;;;;;;;;;;5129008;27;20227;-17
2022/05/25 11:47:26;;;;;;;6.63;6.03;;;;;;;;;;5129996;27;20231;-20
2022/05/25 11:49:59;;;;;;;7.00;6.10;;;;;;;;;;5131413;27;20239;-19
2022/05/25 11:52:34;;;;;;;8.00;5.20;;;;;;;;;;5131589;27;20232;-20
2022/05/25 11:55:04;;;;;;;6.35;5.65;;;;;;;;;;5129622;27;20231;-20
2022/05/25 11:57:34;;;;;;;5.68;5.13;;;;;;;;;;5131529;27;20230;-20
2022/05/25 12:00:18;;;;;;;5.30;4.80;;;;;;;;;;5131276;27;20560;-19
2022/05/25 12:02:50;;;;;;;5.15;4.75;;;;;;;;;;5131411;27;20230;-19
2022/05/25 12:05:20;;;;;;;5.18;4.75;;;;;;;;;;5129251;27;20235;-20
2022/05/25 12:08:03;;;;;;;5.03;4.53;;;;;;;;;;5131274;27;20236;-19
2022/05/25 12:10:31;;;;;;;5.13;4.63;;;;;;;;;;5130427;27;20737;-19
2022/05/25 12:13:00;;;;;;;4.90;4.07;;;;;;;;;;5131196;27;20702;-19
2022/05/25 12:15:30;;;;;;;4.90;4.43;;;;;;;;;;5129784;27;20228;-19
2022/05/25 12:18:08;;;;;;;4.25;3.88;;;;;;;;;;5129755;27;20224;-19
2022/05/25 12:20:36;;;;;;;6.45;3.85;;;;;;;;;;5131565;27;20216;-19
2022/05/25 12:23:06;;;;;;;4.03;3.72;;;;;;;;;;5130557;27;20285;-19
2022/05/25 12:25:34;;;;;;;4.10;3.50;;;;;;;;;;5131047;27;20230;-19
2022/05/25 12:28:01;;;;;;;4.00;3.67;;;;;;;;;;5130218;27;20266;-19
2022/05/25 12:30:32;;;;;;;4.40;4.00;;;;;;;;;;5133107;27;20240;-19
2022/05/25 12:32:59;;;;;;;5.35;4.43;;;;;;;;;;5134178;27;20316;-19
2022/05/25 12:35:27;;;;;;;4.10;3.70;;;;;;;;;;5134117;27;20223;-19
2022/05/25 12:37:54;;;;;;;4.38;3.53;;;;;;;;;;5134347;27;20216;-19
2022/05/25 12:40:36;;;;;;;3.92;3.38;;;;;;;;;;5132395;27;20274;-20
2022/05/25 12:43:05;;;;;;;4.22;3.70;;;;;;;;;;5134412;27;20227;-19
2022/05/25 12:48:40;;;;;;;4.10;3.20;;;;;;;;;;5125335;27;20235;-17
2022/05/25 12:51:08;;;;;;;3.92;3.25;;;;;;;;;;5131975;27;20239;-18
2022/05/25 12:53:36;;;;;;;4.28;3.40;;;;;;;;;;5134306;27;20216;-18
2022/05/25 12:56:05;;;;;;;7.18;3.40;;;;;;;;;;5134124;27;20222;-18
2022/05/25 12:58:39;;;;;;;3.33;3.03;;;;;;;;;;5134559;27;20232;-18
2022/05/25 13:01:07;;;;;;;3.38;3.08;;;;;;;;;;5131593;27;20239;-18
2022/05/25 13:03:41;;;;;;;3.47;3.10;;;;;;;;;;5134244;27;20239;-20
2022/05/25 13:06:09;;;;;;;3.33;2.95;;;;;;;;;;5125569;27;20223;-18
2022/05/25 13:08:59;;;;;;;3.80;3.38;;;;;;;;;;5133859;27;20231;-20
2022/05/25 13:11:30;;;;;;;3.38;3.08;;;;;;;;;;5128217;27;20301;-20
2022/05/25 13:13:59;;;;;;;3.13;2.83;;;;;;;;;;5133936;27;20231;-19
2022/05/25 13:16:46;;;;;;;4.13;3.30;;;;;;;;;;5132136;27;20317;-19
2022/05/25 13:19:14;;;;;;;3.50;2.75;;;;;;;;;;5126685;27;20227;-19
2022/05/25 13:21:41;;;;;;;3.65;2.80;;;;;;;;;;5133359;27;20632;-19
2022/05/25 13:24:13;;;;;;;3.85;2.92;;;;;;;;;;5125430;27;20231;-19
2022/05/25 13:26:48;;;;;;;3.63;2.45;;;;;;;;;;5124853;27;20231;-19
2022/05/25 13:29:18;;;;;;;3.72;2.70;;;;;;;;;;5126983;27;20236;-19
2022/05/25 13:31:46;;;;;;;3.13;2.40;;;;;;;;;;5132056;27;20235;-19
2022/05/25 13:34:14;;;;;;;2.85;2.53;;;;;;;;;;5132151;27;20223;-19
2022/05/25 13:36:45;;;;;;;4.05;2.40;;;;;;;;;;5133488;27;20236;-19
2022/05/25 13:39:14;;;;;;;5.30;2.38;;;;;;;;;;5125705;27;20838;-19
2022/05/25 13:41:42;;;;;;;2.25;1.88;;;;;;;;;;5126163;27;20228;-18
2022/05/25 13:44:10;;;;;;;2.65;2.08;;;;;;;;;;5132506;27;20340;-19
2022/05/25 13:46:47;;;;;;;1.98;1.85;;;;;;;;;;5131664;27;20986;-19
2022/05/25 13:49:17;;;;;;;2.53;2.20;;;;;;;;;;5126551;27;20238;-19
2022/05/25 13:51:44;;;;;;;3.90;1.90;;;;;;;;;;5132430;27;20243;-19
2022/05/25 13:54:22;;;;;;;4.88;1.70;;;;;;;;;;5133159;27;20694;-19
2022/05/25 13:57:11;;;;;;;2.50;1.70;;;;;;;;;;5131709;27;20239;-19
2022/05/25 13:59:39;;;;;;;2.90;2.05;;;;;;;;;;5133160;27;20227;-19
2022/05/25 14:02:16;;;;;;;5.85;1.95;;;;;;;;;;5131789;27;20231;-18
2022/05/25 14:04:43;;;;;;;3.65;1.70;;;;;;;;;;5126126;27;20231;-19
2022/05/25 14:07:26;;;;;;;2.53;1.80;;;;;;;;;;5131144;27;20228;-19
2022/05/25 14:12:44;;;;;;;1.95;1.40;;;;;;;;;;5125483;27;20246;-20
2022/05/25 14:15:11;;;;;;;3.97;1.98;;;;;;;;;;5124093;27;20211;-19
2022/05/25 14:17:39;;;;;;;1.83;1.38;;;;;;;;;;5130370;27;20228;-19
2022/05/25 14:20:09;;;;;;;2.45;1.50;;;;;;;;;;5132780;27;20215;-19
2022/05/25 14:22:38;;;;;;;4.72;1.35;;;;;;;;;;5132557;27;20239;-19
2022/05/25 14:25:11;;;;;;;2.13;1.52;;;;;;;;;;5132737;27;20245;-19
2022/05/25 14:27:38;;;;;;;4.50;1.58;;;;;;;;;;5133153;27;20698;-19
2022/05/25 14:30:07;;;;;;;2.78;1.20;;;;;;;;;;5130813;27;20682;-19
2022/05/25 14:32:34;;;;;;;2.80;1.27;;;;;;;;;;5131459;27;20361;-19
2022/05/25 14:35:04;;;;;;;3.75;1.13;;;;;;;;;;5132547;27;20230;-19
2022/05/25 14:37:32;;;;;;;2.47;1.38;;;;;;;;;;5132417;27;20231;-19
2022/05/25 14:40:00;;;;;;;3.42;1.42;;;;;;;;;;5131122;27;20227;-19
2022/05/25 14:42:28;;;;;;;3.15;1.30;;;;;;;;;;5131609;27;20231;-19
2022/05/25 14:44:56;;;;;;;3.17;1.10;;;;;;;;;;5132338;27;21073;-19
2022/05/25 14:47:28;;;;;;;2.97;1.27;;;;;;;;;;5130789;27;20231;-19
2022/05/25 14:49:57;;;;;;;3.50;1.20;;;;;;;;;;5132195;27;20277;-19
2022/05/25 14:52:27;;;;;;;1.90;1.00;;;;;;;;;;5130121;27;20242;-19
2022/05/25 14:55:00;;;;;;;5.95;1.50;;;;;;;;;;5132005;27;20723;-19
2022/05/25 14:57:27;;;;;;;1.85;1.00;;;;;;;;;;5131995;27;20244;-20
2022/05/25 14:59:55;;;;;;;2.30;1.20;;;;;;;;;;5132075;27;21013;-19
2022/05/25 15:02:23;;;;;;;2.45;1.08;;;;;;;;;;5129109;27;20227;-19
2022/05/25 15:04:50;;;;;;;3.28;1.42;;;;;;;;;;5132140;27;20249;-19
2022/05/25 15:07:22;;;;;;;1.85;0.93;;;;;;;;;;5131409;27;20227;-19
2022/05/25 15:09:50;;;;;;;3.90;1.35;;;;;;;;;;5132009;27;20702;-19
2022/05/25 15:12:20;;;;;;;5.88;1.20;;;;;;;;;;5130683;27;20262;-19
2022/05/25 15:20:43;;;;;;;3.38;0.90;;;;;;;;;;5132015;27;20701;-18
2022/05/25 15:23:16;;;;;;;2.63;1.10;;;;;;;;;;5113259;27;20235;-19
2022/05/25 15:25:48;;;;;;;2.70;0.88;;;;;;;;;;5125771;27;20956;-19
2022/05/25 15:28:27;;;;;;;4.70;1.23;;;;;;;;;;5131724;27;20238;-19
2022/05/25 15:30:55;;;;;;;2.42;1.10;;;;;;;;;;5130383;27;20227;-19
2022/05/25 15:33:23;;;;;;;2.15;1.17;;;;;;;;;;5130750;27;20246;-19